メインページ
METAR-TAF:

METAR-TAF

空港 :

ディオリ・アマニ国際空港

ニアメ, ニジェール

緯度: 13-29N, 経度: 002-10E, 海抜: 223m

現時点の気象観測

当レポートは47分前の07:00(UTC)に作成
西の風 7kt
気温 27°C
湿度 74%
気圧 1012 hPa
視程10km以上
1,500メートル以下は雲なし、積乱雲なし

METAR: DRRN 190700Z 28007KT CAVOK 27/22 Q1012 NOSIG

時間: 08:47 (07:47 UTC)

予報

当レポートは2時間47分前の05:00(UTC)に作成
予報は19日の 06時(UTC)から 20日の 12時(UTC)まで有効
南/南西の風 8kt
視程10km以上
1,500メートル以下は雲なし、積乱雲なし

TAF: DRRN 190500Z 1906/2012 20008KT CAVOK

4,000以上の空港の気象観測と天気予報(METAR報とTAF報)

利用可能な観測所は地図上に黄色い丸と赤い丸で示す。

丸の上にカーソルを重ねると観測所名を参照できる。

次にクリックすると気象観測と天気予報を参照できる。

マップの切り替え:黒色「×」印の緑ボタンをクリックして拡大、「-」印の緑ボタンをクリックして縮小、緑色の三角印をクリックして隣りの地図に切り替え


METAR-TAF: